Keret — UAEH — position and weather

sailwx.info

Track history (hours):
 
Tides and Currents Weather Stations Pressure Air Temp Water Temp Dewpoint Dewpoint Depression Visibility Wind Speed Wind Dir Waves Ship Positions

Keret

Last reported at 2015-Jun-30 21:23 UTC. Time now 2015-Jul-01 04:55 UTC.
Position N 51°45' E 003°17'.

Length 82 m; draft 3.2 m.

Type: Cargo ship. MMSI: 273333000.

Date/timePositionNaut miles runAvg speedWind from/ knotsBaromVisibWave heightAir tempDewpointWater temp
2015-Jun-30 21:23N 51°45' E 003°17'46 9.4
2015-Jun-30 16:33N 51°60' E 002°07'1010.1
2015-Jun-30 15:33N 52°01' E 001°50'10 9.9
2015-Jun-30 14:33N 52°02' E 001°34'7 6.9
2015-Jun-30 13:32N 51°57' E 001°26'0 0.0
2015-Jun-30 12:32N 51°57' E 001°26'0 0.0
2015-Jun-30 11:32N 51°57' E 001°26'0 0.0
2015-Jun-30 10:32N 51°57' E 001°26'0 0.1
2015-Jun-30 09:32N 51°57' E 001°26'0 0.0
2015-Jun-30 08:32N 51°57' E 001°26'0 0.0
2015-Jun-30 07:32N 51°57' E 001°26'0 0.0
2015-Jun-30 06:32N 51°57' E 001°26'0 0.0
2015-Jun-30 05:32N 51°57' E 001°26'0 0.0
2015-Jun-30 04:32N 51°57' E 001°26'0 0.1
2015-Jun-30 03:32N 51°57' E 001°26'0 0.0
2015-Jun-30 02:32N 51°57' E 001°26'0 0.0
2015-Jun-30 01:32N 51°57' E 001°26'0 0.0
2015-Jun-30 00:33N 51°57' E 001°26'0 0.0
2015-Jun-29 23:33N 51°57' E 001°26'0 0.0
2015-Jun-29 22:33N 51°57' E 001°26'0 0.1
2015-Jun-29 21:33N 51°57' E 001°26'0 0.1
2015-Jun-29 20:33N 51°57' E 001°26'0 0.0
2015-Jun-29 19:33N 51°57' E 001°26'0 0.0
2015-Jun-29 18:33N 51°57' E 001°26'0 0.0
2015-Jun-29 17:33N 51°57' E 001°26'4 3.7
2015-Jun-29 16:33N 51°55' E 001°21'8 7.9
2015-Jun-29 15:33N 52°01' E 001°11'2 1.7
2015-Jun-29 14:28N 52°02' E 001°10'0 0.0
2015-Jun-29 13:28N 52°02' E 001°10'0 0.0
2015-Jun-29 12:28N 52°02' E 001°10'0 0.0
2015-Jun-29 11:31N 52°02' E 001°10'0 0.0
2015-Jun-29 10:31N 52°02' E 001°10'0 0.0
2015-Jun-29 09:28N 52°02' E 001°10'0 0.0
2015-Jun-29 08:31N 52°02' E 001°10'0 0.0
2015-Jun-29 07:31N 52°02' E 001°10'0 0.0
2015-Jun-29 06:31N 52°02' E 001°10'0 0.0
2015-Jun-29 05:31N 52°02' E 001°10'0 0.0
2015-Jun-29 04:31N 52°02' E 001°10'0 0.0
2015-Jun-29 03:31N 52°02' E 001°10'0 0.0
2015-Jun-29 02:31N 52°02' E 001°10'0 0.0
2015-Jun-29 01:28N 52°02' E 001°10'0 0.0
2015-Jun-29 00:31N 52°02' E 001°10'0 0.0
2015-Jun-28 23:31N 52°02' E 001°10'0 0.0
2015-Jun-28 22:31N 52°02' E 001°10'0 0.0
2015-Jun-28 21:31N 52°02' E 001°10'0 0.0
2015-Jun-28 20:31N 52°02' E 001°10'0 0.0
2015-Jun-28 19:25N 52°02' E 001°10'0 0.0
2015-Jun-28 18:31N 52°02' E 001°10'0 0.0
2015-Jun-28 17:31N 52°02' E 001°10'0 0.0
2015-Jun-28 16:31N 52°02' E 001°10'0 0.0
2015-Jun-28 15:31N 52°02' E 001°10'0 0.0
2015-Jun-28 14:28N 52°02' E 001°10'0 0.0
2015-Jun-28 13:31N 52°02' E 001°10'0 0.0
2015-Jun-28 12:31N 52°02' E 001°10'0 0.0
2015-Jun-28 11:22N 52°02' E 001°10'0 0.0
2015-Jun-28 10:22N 52°02' E 001°10'0 0.0
2015-Jun-28 09:31N 52°02' E 001°10'0 0.0
2015-Jun-28 08:31N 52°02' E 001°10'0 0.0
2015-Jun-28 07:28N 52°02' E 001°10'0 0.0
2015-Jun-28 06:31N 52°02' E 001°10'0 0.0
2015-Jun-28 05:31N 52°02' E 001°10'0 0.0
2015-Jun-28 04:25N 52°02' E 001°10'0 0.0
2015-Jun-28 03:31N 52°02' E 001°10'0 0.0
2015-Jun-28 02:28N 52°02' E 001°10'0 0.0
2015-Jun-28 01:31N 52°02' E 001°10'0 0.0
2015-Jun-28 00:28N 52°02' E 001°10'0 0.0
2015-Jun-27 23:31N 52°02' E 001°10'0 0.0
2015-Jun-27 22:31N 52°02' E 001°10'0 0.0
2015-Jun-27 21:31N 52°02' E 001°10'0 0.0
2015-Jun-27 20:28N 52°02' E 001°10'0 0.0
2015-Jun-27 19:31N 52°02' E 001°10'0 0.0
2015-Jun-27 18:31N 52°02' E 001°10'0 0.0
2015-Jun-27 17:31N 52°02' E 001°10'0 0.0
2015-Jun-27 16:25N 52°02' E 001°10'0 0.0
2015-Jun-27 15:22N 52°02' E 001°10'0 0.0
2015-Jun-27 14:28N 52°02' E 001°10'0 0.0
2015-Jun-27 13:31N 52°02' E 001°10'0 0.0
2015-Jun-27 12:28N 52°02' E 001°10'0 0.0
2015-Jun-27 11:31N 52°02' E 001°10'0 0.0
2015-Jun-27 10:25N 52°02' E 001°10'0 0.0
2015-Jun-27 09:28N 52°02' E 001°10'0 0.0
2015-Jun-27 08:25N 52°02' E 001°10'0 0.0
2015-Jun-27 07:31N 52°02' E 001°10'0 0.0
2015-Jun-27 06:31N 52°02' E 001°10'0 0.0
2015-Jun-27 05:25N 52°02' E 001°10'0 0.0
2015-Jun-27 04:31N 52°02' E 001°10'0 0.0
2015-Jun-27 03:25N 52°02' E 001°10'0 0.0
2015-Jun-27 02:22N 52°02' E 001°10'0 0.0
2015-Jun-27 01:31N 52°02' E 001°10'0 0.0
2015-Jun-27 00:31N 52°02' E 001°10'0 0.0
2015-Jun-26 23:28N 52°02' E 001°10'0 0.0
2015-Jun-26 22:29N 52°02' E 001°10'0 0.0
2015-Jun-26 21:30N 52°02' E 001°10'0 0.0
2015-Jun-26 20:21N 52°02' E 001°10'0 0.0
2015-Jun-26 19:33N 52°02' E 001°10'0 0.0
2015-Jun-26 18:12N 52°02' E 001°10'0 0.1
2015-Jun-26 17:15N 52°02' E 001°09'0 0.0
2015-Jun-26 16:15N 52°02' E 001°09'0 0.0
2015-Jun-26 04:33N 52°02' E 001°09'0 0.0
2015-Jun-26 03:12N 52°02' E 001°09'0 0.0
2015-Jun-26 02:27N 52°02' E 001°09'0 0.0
2015-Jun-26 01:30N 52°02' E 001°09'0 0.0
2015-Jun-26 00:33N 52°02' E 001°09'0 0.0
2015-Jun-25 21:30N 52°02' E 001°09'0 0.0
2015-Jun-25 20:33N 52°02' E 001°09'6 5.6
2015-Jun-25 19:33N 51°59' E 001°17'6 5.9
2015-Jun-25 18:34N 51°57' E 001°26'0 0.1
2015-Jun-25 17:33N 51°57' E 001°26'0 0.1
2015-Jun-25 16:33N 51°57' E 001°26'0 0.0
2015-Jun-25 15:33N 51°57' E 001°26'6 6.1
2015-Jun-25 14:33N 51°53' E 001°34'6 6.1
2015-Jun-25 13:33N 51°51' E 001°43'6 5.6
2015-Jun-25 12:33N 51°47' E 001°48'7 6.9
2015-Jun-25 11:33N 51°40' E 001°48'7 7.5
2015-Jun-25 10:33N 51°32' E 001°48'8 8.1
2015-Jun-25 09:33N 51°24' E 001°46'9 9.3
2015-Jun-25 08:33N 51°15' E 001°41'8 8.5
2015-Jun-25 07:33N 51°07' E 001°38'4610.3
2015-Jun-25 03:04N 50°31' E 000°53'128 9.2
2015-Jun-24 13:11N 50°15' W 002°26'711.0
2015-Jun-24 12:33N 50°13' W 002°36'1110.5
2015-Jun-24 11:33N 50°12' W 002°53'1010.1
2015-Jun-24 10:33N 50°09' W 003°08'1010.0
2015-Jun-24 09:33N 50°07' W 003°23'262 6.9
2015-Jun-22 19:22N 54°19' W 005°21'7 9.0
2015-Jun-22 18:33N 54°27' W 005°21'9 8.6
2015-Jun-22 17:33N 54°35' W 005°25'8 7.8
2015-Jun-22 16:33N 54°42' W 005°30'8 8.4
2015-Jun-22 15:33N 54°41' W 005°44'8 1.0
2015-Jun-22 07:28N 54°37' W 005°55'0 0.0
2015-Jun-22 05:25N 54°37' W 005°55'0 0.0
2015-Jun-22 01:31N 54°37' W 005°55'4 3.7
2015-Jun-22 00:33N 54°39' W 005°51'6 6.1
2015-Jun-21 23:33N 54°43' W 005°42'6 6.3
2015-Jun-21 22:33N 54°43' W 005°31'5 5.5
2015-Jun-21 21:33N 54°39' W 005°26'5 5.4
2015-Jun-21 20:34N 54°34' W 005°23'9 8.8
2015-Jun-21 19:34N 54°25' W 005°19'  
Track history (hours):
 
Tides and Currents Weather Stations Pressure Air Temp Water Temp Dewpoint Dewpoint Depression Visibility Wind Speed Wind Dir Waves Ship Positions

Keret

Last reported at 2015-Jun-30 21:23 UTC. Time now 2015-Jul-01 04:55 UTC.
Position N 51°45' E 003°17'.

Length 82 m; draft 3.2 m.

Type: Cargo ship. MMSI: 273333000.

Date/timePositionNaut miles runAvg speedWind from/ knotsBaromVisibWave heightAir tempDewpointWater temp
2015-Jun-30 21:23N 51°45' E 003°17'46 9.4
2015-Jun-30 16:33N 51°60' E 002°07'1010.1
2015-Jun-30 15:33N 52°01' E 001°50'10 9.9
2015-Jun-30 14:33N 52°02' E 001°34'7 6.9
2015-Jun-30 13:32N 51°57' E 001°26'0 0.0
2015-Jun-30 12:32N 51°57' E 001°26'0 0.0
2015-Jun-30 11:32N 51°57' E 001°26'0 0.0
2015-Jun-30 10:32N 51°57' E 001°26'0 0.1
2015-Jun-30 09:32N 51°57' E 001°26'0 0.0
2015-Jun-30 08:32N 51°57' E 001°26'0 0.0
2015-Jun-30 07:32N 51°57' E 001°26'0 0.0
2015-Jun-30 06:32N 51°57' E 001°26'0 0.0
2015-Jun-30 05:32N 51°57' E 001°26'0 0.0
2015-Jun-30 04:32N 51°57' E 001°26'0 0.1
2015-Jun-30 03:32N 51°57' E 001°26'0 0.0
2015-Jun-30 02:32N 51°57' E 001°26'0 0.0
2015-Jun-30 01:32N 51°57' E 001°26'0 0.0
2015-Jun-30 00:33N 51°57' E 001°26'0 0.0
2015-Jun-29 23:33N 51°57' E 001°26'0 0.0
2015-Jun-29 22:33N 51°57' E 001°26'0 0.1
2015-Jun-29 21:33N 51°57' E 001°26'0 0.1
2015-Jun-29 20:33N 51°57' E 001°26'0 0.0
2015-Jun-29 19:33N 51°57' E 001°26'0 0.0
2015-Jun-29 18:33N 51°57' E 001°26'0 0.0
2015-Jun-29 17:33N 51°57' E 001°26'4 3.7
2015-Jun-29 16:33N 51°55' E 001°21'8 7.9
2015-Jun-29 15:33N 52°01' E 001°11'2 1.7
2015-Jun-29 14:28N 52°02' E 001°10'0 0.0
2015-Jun-29 13:28N 52°02' E 001°10'0 0.0
2015-Jun-29 12:28N 52°02' E 001°10'0 0.0
2015-Jun-29 11:31N 52°02' E 001°10'0 0.0
2015-Jun-29 10:31N 52°02' E 001°10'0 0.0
2015-Jun-29 09:28N 52°02' E 001°10'0 0.0
2015-Jun-29 08:31N 52°02' E 001°10'0 0.0
2015-Jun-29 07:31N 52°02' E 001°10'0 0.0
2015-Jun-29 06:31N 52°02' E 001°10'0 0.0
2015-Jun-29 05:31N 52°02' E 001°10'0 0.0
2015-Jun-29 04:31N 52°02' E 001°10'0 0.0
2015-Jun-29 03:31N 52°02' E 001°10'0 0.0
2015-Jun-29 02:31N 52°02' E 001°10'0 0.0
2015-Jun-29 01:28N 52°02' E 001°10'0 0.0
2015-Jun-29 00:31N 52°02' E 001°10'0 0.0
2015-Jun-28 23:31N 52°02' E 001°10'0 0.0
2015-Jun-28 22:31N 52°02' E 001°10'0 0.0
2015-Jun-28 21:31N 52°02' E 001°10'0 0.0
2015-Jun-28 20:31N 52°02' E 001°10'0 0.0
2015-Jun-28 19:25N 52°02' E 001°10'0 0.0
2015-Jun-28 18:31N 52°02' E 001°10'0 0.0
2015-Jun-28 17:31N 52°02' E 001°10'0 0.0
2015-Jun-28 16:31N 52°02' E 001°10'0 0.0
2015-Jun-28 15:31N 52°02' E 001°10'0 0.0
2015-Jun-28 14:28N 52°02' E 001°10'0 0.0
2015-Jun-28 13:31N 52°02' E 001°10'0 0.0
2015-Jun-28 12:31N 52°02' E 001°10'0 0.0
2015-Jun-28 11:22N 52°02' E 001°10'0 0.0
2015-Jun-28 10:22N 52°02' E 001°10'0 0.0
2015-Jun-28 09:31N 52°02' E 001°10'0 0.0
2015-Jun-28 08:31N 52°02' E 001°10'0 0.0
2015-Jun-28 07:28N 52°02' E 001°10'0 0.0
2015-Jun-28 06:31N 52°02' E 001°10'0 0.0
2015-Jun-28 05:31N 52°02' E 001°10'0 0.0
2015-Jun-28 04:25N 52°02' E 001°10'0 0.0
2015-Jun-28 03:31N 52°02' E 001°10'0 0.0
2015-Jun-28 02:28N 52°02' E 001°10'0 0.0
2015-Jun-28 01:31N 52°02' E 001°10'0 0.0
2015-Jun-28 00:28N 52°02' E 001°10'0 0.0
2015-Jun-27 23:31N 52°02' E 001°10'0 0.0
2015-Jun-27 22:31N 52°02' E 001°10'0 0.0
2015-Jun-27 21:31N 52°02' E 001°10'0 0.0
2015-Jun-27 20:28N 52°02' E 001°10'0 0.0
2015-Jun-27 19:31N 52°02' E 001°10'0 0.0
2015-Jun-27 18:31N 52°02' E 001°10'0 0.0
2015-Jun-27 17:31N 52°02' E 001°10'0 0.0
2015-Jun-27 16:25N 52°02' E 001°10'0 0.0
2015-Jun-27 15:22N 52°02' E 001°10'0 0.0
2015-Jun-27 14:28N 52°02' E 001°10'0 0.0
2015-Jun-27 13:31N 52°02' E 001°10'0 0.0
2015-Jun-27 12:28N 52°02' E 001°10'0 0.0
2015-Jun-27 11:31N 52°02' E 001°10'0 0.0
2015-Jun-27 10:25N 52°02' E 001°10'0 0.0
2015-Jun-27 09:28N 52°02' E 001°10'0 0.0
2015-Jun-27 08:25N 52°02' E 001°10'0 0.0
2015-Jun-27 07:31N 52°02' E 001°10'0 0.0
2015-Jun-27 06:31N 52°02' E 001°10'0 0.0
2015-Jun-27 05:25N 52°02' E 001°10'0 0.0
2015-Jun-27 04:31N 52°02' E 001°10'0 0.0
2015-Jun-27 03:25N 52°02' E 001°10'0 0.0
2015-Jun-27 02:22N 52°02' E 001°10'0 0.0
2015-Jun-27 01:31N 52°02' E 001°10'0 0.0
2015-Jun-27 00:31N 52°02' E 001°10'0 0.0
2015-Jun-26 23:28N 52°02' E 001°10'0 0.0
2015-Jun-26 22:29N 52°02' E 001°10'0 0.0
2015-Jun-26 21:30N 52°02' E 001°10'0 0.0
2015-Jun-26 20:21N 52°02' E 001°10'0 0.0
2015-Jun-26 19:33N 52°02' E 001°10'0 0.0
2015-Jun-26 18:12N 52°02' E 001°10'0 0.1
2015-Jun-26 17:15N 52°02' E 001°09'0 0.0
2015-Jun-26 16:15N 52°02' E 001°09'0 0.0
2015-Jun-26 04:33N 52°02' E 001°09'0 0.0
2015-Jun-26 03:12N 52°02' E 001°09'0 0.0
2015-Jun-26 02:27N 52°02' E 001°09'0 0.0
2015-Jun-26 01:30N 52°02' E 001°09'0 0.0
2015-Jun-26 00:33N 52°02' E 001°09'0 0.0
2015-Jun-25 21:30N 52°02' E 001°09'0 0.0
2015-Jun-25 20:33N 52°02' E 001°09'6 5.6
2015-Jun-25 19:33N 51°59' E 001°17'6 5.9
2015-Jun-25 18:34N 51°57' E 001°26'0 0.1
2015-Jun-25 17:33N 51°57' E 001°26'0 0.1
2015-Jun-25 16:33N 51°57' E 001°26'0 0.0
2015-Jun-25 15:33N 51°57' E 001°26'6 6.1
2015-Jun-25 14:33N 51°53' E 001°34'6 6.1
2015-Jun-25 13:33N 51°51' E 001°43'6 5.6
2015-Jun-25 12:33N 51°47' E 001°48'7 6.9
2015-Jun-25 11:33N 51°40' E 001°48'7 7.5
2015-Jun-25 10:33N 51°32' E 001°48'8 8.1
2015-Jun-25 09:33N 51°24' E 001°46'9 9.3
2015-Jun-25 08:33N 51°15' E 001°41'8 8.5
2015-Jun-25 07:33N 51°07' E 001°38'4610.3
2015-Jun-25 03:04N 50°31' E 000°53'128 9.2
2015-Jun-24 13:11N 50°15' W 002°26'711.0
2015-Jun-24 12:33N 50°13' W 002°36'1110.5
2015-Jun-24 11:33N 50°12' W 002°53'1010.1
2015-Jun-24 10:33N 50°09' W 003°08'1010.0
2015-Jun-24 09:33N 50°07' W 003°23'262 6.9
2015-Jun-22 19:22N 54°19' W 005°21'7 9.0
2015-Jun-22 18:33N 54°27' W 005°21'9 8.6
2015-Jun-22 17:33N 54°35' W 005°25'8 7.8
2015-Jun-22 16:33N 54°42' W 005°30'8 8.4
2015-Jun-22 15:33N 54°41' W 005°44'8 1.0
2015-Jun-22 07:28N 54°37' W 005°55'0 0.0
2015-Jun-22 05:25N 54°37' W 005°55'0 0.0
2015-Jun-22 01:31N 54°37' W 005°55'4 3.7
2015-Jun-22 00:33N 54°39' W 005°51'6 6.1
2015-Jun-21 23:33N 54°43' W 005°42'6 6.3
2015-Jun-21 22:33N 54°43' W 005°31'5 5.5
2015-Jun-21 21:33N 54°39' W 005°26'5 5.4
2015-Jun-21 20:34N 54°34' W 005°23'9 8.8
2015-Jun-21 19:34N 54°25' W 005°19'  

Dump ship's entire track history